createdAt,value
2018-02-21T00:01:10.770Z,53.00
2018-02-21T00:03:38.892Z,48.93
2018-02-21T00:06:07.801Z,49.07
2018-02-21T00:08:35.941Z,49.90
2018-02-21T00:11:04.177Z,47.90
2018-02-21T00:13:32.333Z,47.30
2018-02-21T00:16:01.246Z,49.97
2018-02-21T00:18:30.562Z,52.57
2018-02-21T00:20:58.700Z,51.77
2018-02-21T00:23:26.817Z,50.43
2018-02-21T00:25:54.960Z,48.73
2018-02-21T00:28:23.097Z,47.40
2018-02-21T00:30:52.402Z,48.23
2018-02-21T00:33:21.297Z,47.37
2018-02-21T00:35:49.452Z,48.33
2018-02-21T00:38:18.377Z,45.27
2018-02-21T00:40:46.535Z,47.33
2018-02-21T00:43:14.662Z,48.50
2018-02-21T00:45:42.806Z,48.87
2018-02-21T00:48:10.940Z,46.50
2018-02-21T00:50:39.085Z,47.10
2018-02-21T00:53:07.205Z,46.20
2018-02-21T00:55:35.344Z,47.10
2018-02-21T00:58:03.469Z,47.70
2018-02-21T01:00:31.627Z,45.40
2018-02-21T01:02:59.769Z,44.53
2018-02-21T01:05:27.924Z,43.30
2018-02-21T01:07:56.050Z,45.80
2018-02-21T01:10:24.189Z,44.10
2018-02-21T01:12:52.368Z,42.30
2018-02-21T01:15:21.266Z,43.63
2018-02-21T01:17:50.185Z,44.07
2018-02-21T01:20:18.313Z,43.97
2018-02-21T01:22:46.471Z,44.33
2018-02-21T01:25:15.569Z,47.80
2018-02-21T01:27:43.731Z,47.20
2018-02-21T01:30:11.855Z,49.70
2018-02-21T01:32:40.766Z,52.93
2018-02-21T01:35:09.918Z,50.20
2018-02-21T01:37:39.413Z,51.90
2018-02-21T01:40:07.529Z,50.40
2018-02-21T01:42:35.673Z,48.67
2018-02-21T01:45:04.217Z,50.13
2018-02-21T01:47:32.373Z,50.47
2018-02-21T01:50:00.496Z,51.10
2018-02-21T01:52:28.659Z,52.40
2018-02-21T01:54:56.780Z,51.67
2018-02-21T01:57:24.929Z,48.30
2018-02-21T01:59:53.824Z,49.43
2018-02-21T02:02:22.725Z,52.23
2018-02-21T02:04:51.617Z,52.20
2018-02-21T02:07:20.529Z,54.70
2018-02-21T02:09:48.657Z,53.03
2018-02-21T02:12:16.807Z,52.77
2018-02-21T02:14:45.692Z,51.83
2018-02-21T02:17:13.854Z,51.07
2018-02-21T02:19:41.978Z,50.00
2018-02-21T02:22:10.894Z,52.87
2018-02-21T02:24:39.018Z,52.47
2018-02-21T02:27:07.929Z,53.17
2018-02-21T02:29:36.062Z,53.67
2018-02-21T02:32:04.209Z,51.27
2018-02-21T02:34:32.328Z,51.50
2018-02-21T02:37:00.468Z,50.37
2018-02-21T02:39:40.837Z,49.33
2018-02-21T02:42:08.977Z,50.43
2018-02-21T02:44:37.872Z,44.03
2018-02-21T02:47:06.834Z,46.20
2018-02-21T02:49:34.974Z,45.50
2018-02-21T02:52:03.122Z,42.20
2018-02-21T02:54:31.247Z,42.63
2018-02-21T02:56:59.411Z,48.17
2018-02-21T02:59:27.566Z,46.30
2018-02-21T03:01:55.721Z,45.67
2018-02-21T03:04:23.859Z,43.30
2018-02-21T03:06:52.018Z,41.33
2018-02-21T03:09:20.149Z,41.13
2018-02-21T03:11:48.314Z,43.33
2018-02-21T03:14:16.448Z,41.93
2018-02-21T03:16:44.604Z,41.27
2018-02-21T03:19:13.496Z,42.03
2018-02-21T03:21:41.658Z,43.73
2018-02-21T03:24:10.226Z,41.80
2018-02-21T03:26:38.378Z,41.37
2018-02-21T03:29:06.601Z,40.63
2018-02-21T03:31:34.779Z,40.10
2018-02-21T03:34:02.917Z,42.97
2018-02-21T03:36:31.070Z,43.37
2018-02-21T03:38:59.206Z,39.63
2018-02-21T03:41:28.628Z,41.00
2018-02-21T03:43:57.520Z,40.17
2018-02-21T03:46:26.437Z,40.70
2018-02-21T03:48:54.590Z,40.60
2018-02-21T03:51:23.480Z,38.00
2018-02-21T03:53:52.401Z,38.80
2018-02-21T03:56:20.536Z,41.90
2018-02-21T03:58:50.612Z,37.53
2018-02-21T04:01:18.754Z,41.30
2018-02-21T04:03:46.893Z,37.93
2018-02-21T04:06:15.026Z,42.53
2018-02-21T04:08:43.186Z,46.70
2018-02-21T04:11:11.323Z,49.10
2018-02-21T04:13:40.260Z,44.90
2018-02-21T04:16:08.398Z,46.83
2018-02-21T04:18:37.317Z,46.17
2018-02-21T04:21:05.452Z,45.73
2018-02-21T04:23:34.372Z,45.83
2018-02-21T04:26:02.530Z,44.60
2018-02-21T04:28:31.451Z,45.83
2018-02-21T04:30:59.585Z,45.13
2018-02-21T04:33:28.506Z,46.10
2018-02-21T04:35:56.626Z,47.87
2018-02-21T04:38:24.790Z,41.80
2018-02-21T04:40:54.286Z,41.70
2018-02-21T04:43:22.445Z,41.63
2018-02-21T04:45:50.581Z,44.23
2018-02-21T04:48:19.502Z,42.53
2018-02-21T04:50:49.016Z,41.30
2018-02-21T04:53:17.175Z,43.87
2018-02-21T04:56:00.201Z,40.30
2018-02-21T04:58:35.968Z,42.58
2018-02-21T05:01:04.092Z,45.43
2018-02-21T05:03:33.748Z,45.30
2018-02-21T05:06:01.876Z,39.40
2018-02-21T05:08:30.805Z,41.47
2018-02-21T05:10:59.008Z,40.10
2018-02-21T05:13:27.646Z,41.77
2018-02-21T05:15:55.760Z,40.27
2018-02-21T05:18:23.911Z,42.40
2018-02-21T05:20:52.092Z,42.70
2018-02-21T05:23:20.261Z,41.83
2018-02-21T05:25:48.400Z,40.03
2018-02-21T05:28:17.314Z,39.30
2018-02-21T05:30:45.444Z,39.23
2018-02-21T05:33:13.601Z,40.80
2018-02-21T05:35:41.822Z,40.27
2018-02-21T05:38:10.731Z,40.20
2018-02-21T05:40:38.857Z,41.97
2018-02-21T05:43:07.011Z,42.17
2018-02-21T05:45:35.149Z,38.43
2018-02-21T05:48:03.298Z,43.07
2018-02-21T05:50:32.186Z,40.47
2018-02-21T05:53:01.124Z,39.70
2018-02-21T05:55:29.248Z,39.73
2018-02-21T05:57:58.170Z,39.97
2018-02-21T06:00:26.295Z,40.47
2018-02-21T06:02:55.587Z,39.60
2018-02-21T06:05:23.714Z,38.97
2018-02-21T06:07:54.510Z,39.97
2018-02-21T06:10:22.868Z,39.10
2018-02-21T06:12:51.038Z,41.70
2018-02-21T06:15:19.167Z,38.30
2018-02-21T06:17:48.085Z,38.60
2018-02-21T06:20:17.141Z,42.83
2018-02-21T06:22:46.065Z,39.77
2018-02-21T06:25:14.192Z,38.53
2018-02-21T06:27:44.694Z,37.93
2018-02-21T06:30:12.823Z,41.73
2018-02-21T06:32:41.741Z,41.40
2018-02-21T06:35:09.864Z,38.33
2018-02-21T06:37:38.022Z,42.97
2018-02-21T06:40:06.165Z,39.70
2018-02-21T06:42:34.341Z,39.27
2018-02-21T06:45:02.466Z,37.30
2018-02-21T06:47:31.065Z,35.73
2018-02-21T06:49:59.939Z,36.67
2018-02-21T06:52:28.087Z,35.03
2018-02-21T06:54:56.210Z,34.27
2018-02-21T06:57:25.114Z,34.27
2018-02-21T06:59:53.262Z,33.57
2018-02-21T07:02:35.458Z,33.00
2018-02-21T07:05:04.963Z,36.57
2018-02-21T07:07:33.090Z,34.83
2018-02-21T07:10:01.257Z,34.93
2018-02-21T07:12:29.397Z,33.13
2018-02-21T07:14:58.350Z,33.03
2018-02-21T07:17:26.466Z,34.73
2018-02-21T07:19:55.401Z,32.90
2018-02-21T07:22:24.306Z,32.60
2018-02-21T07:24:52.446Z,33.93
2018-02-21T07:27:20.993Z,35.20
2018-02-21T07:29:50.294Z,35.23
2018-02-21T07:32:19.199Z,34.67
2018-02-21T07:34:47.378Z,33.83
2018-02-21T07:37:15.664Z,35.17
2018-02-21T07:39:43.862Z,32.43
2018-02-21T07:42:11.990Z,33.40
2018-02-21T07:44:40.905Z,32.10
2018-02-21T07:47:09.769Z,33.93
2018-02-21T07:49:38.686Z,33.43
2018-02-21T07:52:06.829Z,32.80
2018-02-21T07:54:36.388Z,31.47
2018-02-21T07:57:04.618Z,34.50
2018-02-21T07:59:34.900Z,32.90
2018-02-21T08:02:03.230Z,32.80
2018-02-21T08:04:33.241Z,31.63
2018-02-21T08:07:01.517Z,31.90
2018-02-21T08:09:30.430Z,32.67
2018-02-21T08:11:58.791Z,33.20
2018-02-21T08:14:27.993Z,33.27
2018-02-21T08:16:56.162Z,34.30
2018-02-21T08:19:25.806Z,33.90
2018-02-21T08:21:54.037Z,34.70
2018-02-21T08:24:22.313Z,32.50
2018-02-21T08:26:51.848Z,31.77
2018-02-21T08:29:20.318Z,32.37
2018-02-21T08:31:49.771Z,33.07
2018-02-21T08:34:17.961Z,33.50
2018-02-21T08:36:46.159Z,32.33
2018-02-21T08:39:15.078Z,32.00
2018-02-21T08:41:43.221Z,33.90
2018-02-21T08:44:12.818Z,35.10
2018-02-21T08:46:41.072Z,33.10
2018-02-21T08:49:10.195Z,33.63
2018-02-21T08:51:39.248Z,34.63
2018-02-21T08:54:07.402Z,35.10
2018-02-21T08:56:35.538Z,34.30
2018-02-21T08:59:03.742Z,32.27
2018-02-21T09:01:32.494Z,34.17
2018-02-21T09:04:00.687Z,35.40
2018-02-21T09:06:29.402Z,36.50
2018-02-21T09:08:57.607Z,33.30
2018-02-21T09:11:26.088Z,33.80
2018-02-21T09:13:54.349Z,34.93
2018-02-21T09:16:22.478Z,32.47
2018-02-21T09:18:50.635Z,31.67
2018-02-21T09:21:19.702Z,33.40
2018-02-21T09:23:52.693Z,33.73
2018-02-21T09:26:21.256Z,34.27
2018-02-21T09:28:49.401Z,34.27
2018-02-21T09:31:17.648Z,33.30
2018-02-21T09:33:47.571Z,33.10
2018-02-21T09:36:15.829Z,32.30
2018-02-21T09:38:44.655Z,34.00
2018-02-21T09:41:12.878Z,34.33
2018-02-21T09:43:41.098Z,33.47
2018-02-21T09:46:11.324Z,32.20
2018-02-21T09:48:39.562Z,33.07
2018-02-21T09:51:07.746Z,33.17
2018-02-21T09:53:36.328Z,32.40
2018-02-21T09:56:04.485Z,33.63
2018-02-21T09:58:32.732Z,32.77
2018-02-21T10:01:00.998Z,33.27
2018-02-21T10:03:30.510Z,33.93
2018-02-21T10:05:58.822Z,32.93
2018-02-21T10:08:27.106Z,32.83
2018-02-21T10:10:55.271Z,33.07
2018-02-21T10:13:23.397Z,33.50
2018-02-21T10:15:51.567Z,34.50
2018-02-21T10:18:19.721Z,33.53
2018-02-21T10:20:48.706Z,31.83
2018-02-21T10:23:17.992Z,34.00
2018-02-21T10:25:46.143Z,32.10
2018-02-21T10:28:14.998Z,32.20
2018-02-21T10:30:43.289Z,31.07
2018-02-21T10:33:11.503Z,31.70
2018-02-21T10:35:39.705Z,32.43
2018-02-21T10:38:08.595Z,28.27
2018-02-21T10:40:36.780Z,28.03
2018-02-21T10:43:04.944Z,30.93
2018-02-21T10:45:33.784Z,29.53
2018-02-21T10:48:03.736Z,29.57
2018-02-21T10:50:34.118Z,28.00
2018-02-21T10:53:02.949Z,29.10
2018-02-21T10:55:31.550Z,25.60
2018-02-21T10:57:59.690Z,26.23
2018-02-21T11:00:33.466Z,28.20
2018-02-21T11:03:03.170Z,23.70
2018-02-21T11:05:32.156Z,23.97
2018-02-21T11:08:00.474Z,24.90
2018-02-21T11:10:28.884Z,23.07
2018-02-21T11:12:57.773Z,23.07
2018-02-21T11:15:26.007Z,21.93
2018-02-21T11:17:54.411Z,22.47
2018-02-21T11:20:22.681Z,23.07
2018-02-21T11:22:50.813Z,24.60
2018-02-21T11:25:18.958Z,23.87
2018-02-21T11:27:47.865Z,23.90
2018-02-21T11:30:16.020Z,23.23
2018-02-21T11:32:44.961Z,24.23
2018-02-21T11:35:13.102Z,23.93
2018-02-21T11:37:41.230Z,23.77
2018-02-21T11:40:09.376Z,23.87
2018-02-21T11:42:37.508Z,25.23
2018-02-21T11:45:06.788Z,24.63
2018-02-21T11:47:35.021Z,25.47
2018-02-21T11:50:03.295Z,26.33
2018-02-21T11:52:31.417Z,26.13
2018-02-21T11:55:00.672Z,24.53
2018-02-21T11:57:29.730Z,28.13
2018-02-21T11:59:58.686Z,27.30
2018-02-21T12:02:26.821Z,24.47
2018-02-21T12:04:54.964Z,24.60
2018-02-21T12:07:23.854Z,24.90
2018-02-21T12:09:53.605Z,24.87
2018-02-21T12:12:22.081Z,24.10
2018-02-21T12:14:50.241Z,24.97
2018-02-21T12:17:18.369Z,24.93
2018-02-21T12:19:46.529Z,24.03
2018-02-21T12:22:14.653Z,25.20
2018-02-21T12:24:43.584Z,24.30
2018-02-21T12:27:11.712Z,22.37
2018-02-21T12:29:40.630Z,24.77
2018-02-21T12:32:08.752Z,26.00
2018-02-21T12:34:37.528Z,24.67
2018-02-21T12:37:06.578Z,25.10
2018-02-21T12:39:34.729Z,24.17
2018-02-21T12:42:03.995Z,24.97
2018-02-21T12:44:32.693Z,24.07
2018-02-21T12:47:00.977Z,23.23
2018-02-21T12:49:30.788Z,24.40
2018-02-21T12:51:59.000Z,22.60
2018-02-21T12:54:27.162Z,22.17
2018-02-21T12:56:56.984Z,22.90
2018-02-21T12:59:25.110Z,22.50
2018-02-21T13:01:53.278Z,25.70
2018-02-21T13:04:21.385Z,23.87
2018-02-21T13:06:50.302Z,22.33
2018-02-21T13:09:18.421Z,23.30
2018-02-21T13:11:46.566Z,22.67
2018-02-21T13:14:14.697Z,22.23
2018-02-21T13:16:43.606Z,23.30
2018-02-21T13:19:11.729Z,21.50
2018-02-21T13:21:39.882Z,23.27
2018-02-21T13:24:08.027Z,21.90
2018-02-21T13:26:36.185Z,21.63
2018-02-21T13:29:05.072Z,20.57
2018-02-21T13:31:33.986Z,19.23
2018-02-21T13:34:02.684Z,16.97
2018-02-21T13:36:30.838Z,18.93
2018-02-21T13:38:58.969Z,18.83
2018-02-21T13:41:27.103Z,18.50
2018-02-21T13:43:56.083Z,16.50
2018-02-21T13:46:24.265Z,18.63
2018-02-21T13:48:52.390Z,15.93
2018-02-21T13:51:20.531Z,16.53
2018-02-21T13:53:48.653Z,15.63
2018-02-21T13:56:18.290Z,17.60
2018-02-21T13:58:46.421Z,15.80
2018-02-21T14:01:14.575Z,14.17
2018-02-21T14:03:42.701Z,16.80
2018-02-21T14:06:10.860Z,16.53
2018-02-21T14:08:39.749Z,14.90
2018-02-21T14:11:08.660Z,17.33
2018-02-21T14:13:36.785Z,16.47
2018-02-21T14:16:04.966Z,13.83
2018-02-21T14:18:33.092Z,14.73
2018-02-21T14:21:01.245Z,16.00
2018-02-21T14:23:30.129Z,15.77
2018-02-21T14:25:59.049Z,16.27
2018-02-21T14:28:27.167Z,15.87
2018-02-21T14:30:55.323Z,17.00
2018-02-21T14:33:23.453Z,16.27
2018-02-21T14:35:51.614Z,15.53
2018-02-21T14:38:20.505Z,16.70
2018-02-21T14:40:49.430Z,16.23
2018-02-21T14:43:21.372Z,18.60
2018-02-21T14:45:49.512Z,16.67
2018-02-21T14:48:17.639Z,16.50
2018-02-21T14:50:45.781Z,18.93
2018-02-21T14:53:13.892Z,18.10
2018-02-21T14:55:42.042Z,16.83
2018-02-21T14:58:10.161Z,18.17
2018-02-21T15:00:39.075Z,16.43
2018-02-21T15:03:07.201Z,17.10
2018-02-21T15:05:35.386Z,18.60
2018-02-21T15:08:03.513Z,15.77
2018-02-21T15:10:31.648Z,15.77
2018-02-21T15:13:00.538Z,16.73
2018-02-21T15:15:29.461Z,16.00
2018-02-21T15:17:57.578Z,16.33
2018-02-21T15:20:25.745Z,17.20
2018-02-21T15:22:53.916Z,17.40
2018-02-21T15:25:22.035Z,17.10
2018-02-21T15:27:50.973Z,18.93
2018-02-21T15:30:19.150Z,17.67
2018-02-21T15:32:47.242Z,17.83
2018-02-21T15:35:15.364Z,17.80
2018-02-21T15:37:43.525Z,19.30
2018-02-21T15:40:11.654Z,18.03
2018-02-21T15:42:39.784Z,19.23
2018-02-21T15:45:07.952Z,17.60
2018-02-21T15:47:36.848Z,18.70
2018-02-21T15:50:04.966Z,18.33
2018-02-21T15:52:33.113Z,19.37
2018-02-21T15:55:01.225Z,18.70
2018-02-21T15:57:29.386Z,19.63
2018-02-21T15:59:57.507Z,20.47
2018-02-21T16:02:25.659Z,20.13
2018-02-21T16:04:53.778Z,19.27
2018-02-21T16:07:21.961Z,20.07
2018-02-21T16:09:50.849Z,19.10
2018-02-21T16:12:19.761Z,19.53
2018-02-21T16:14:47.889Z,19.70
2018-02-21T16:17:16.043Z,18.37
2018-02-21T16:19:44.181Z,18.40
2018-02-21T16:22:12.357Z,21.77
2018-02-21T16:24:40.515Z,20.03
2018-02-21T16:27:09.458Z,20.67
2018-02-21T16:29:37.621Z,20.40
2018-02-21T16:32:06.598Z,18.60
2018-02-21T16:34:34.938Z,20.40
2018-02-21T16:37:03.142Z,22.40
2018-02-21T16:39:31.317Z,21.13
2018-02-21T16:41:59.528Z,21.53
2018-02-21T16:44:28.250Z,21.23
2018-02-21T16:46:56.454Z,24.33
2018-02-21T16:49:26.043Z,21.70
2018-02-21T16:54:33.235Z,22.23
2018-02-21T16:57:09.897Z,19.63
2018-02-21T16:59:40.015Z,24.37
2018-02-21T17:02:10.297Z,20.37
2018-02-21T17:04:39.598Z,20.60
2018-02-21T17:07:07.765Z,20.90
2018-02-21T17:09:36.392Z,22.30
2018-02-21T17:12:04.524Z,19.50
2018-02-21T17:14:32.645Z,20.20
2018-02-21T17:17:00.797Z,21.90
2018-02-21T17:19:28.928Z,19.00
2018-02-21T17:21:57.077Z,24.47
2018-02-21T17:24:25.194Z,19.60
2018-02-21T17:26:56.988Z,19.50
2018-02-21T17:29:26.467Z,21.07
2018-02-21T17:31:54.605Z,18.00
2018-02-21T17:34:23.486Z,20.40
2018-02-21T17:36:51.624Z,20.40
2018-02-21T17:39:19.758Z,20.07
2018-02-21T17:41:47.910Z,21.53
2018-02-21T17:44:16.845Z,21.03
2018-02-21T17:46:44.982Z,20.23
2018-02-21T17:49:14.412Z,21.40
2018-02-21T17:51:42.564Z,20.17
2018-02-21T17:54:11.443Z,20.50
2018-02-21T17:56:40.348Z,30.00
2018-02-21T17:59:09.228Z,26.40
2018-02-21T18:01:38.156Z,23.20
2018-02-21T18:04:06.268Z,22.43
2018-02-21T18:06:34.386Z,21.03
2018-02-21T18:09:02.531Z,21.90
2018-02-21T18:11:30.677Z,21.80
2018-02-21T18:13:58.825Z,20.03
2018-02-21T18:16:26.943Z,21.03
2018-02-21T18:18:55.094Z,20.03
2018-02-21T18:21:38.908Z,25.03
2018-02-21T18:24:07.045Z,23.67
2018-02-21T18:26:35.920Z,21.03
2018-02-21T18:29:04.115Z,24.03
2018-02-21T18:31:34.986Z,31.87
2018-02-21T18:34:05.302Z,26.27
2018-02-21T18:36:33.516Z,31.93
2018-02-21T18:39:01.655Z,25.80
2018-02-21T18:41:29.792Z,23.63
2018-02-21T18:43:58.691Z,22.33
2018-02-21T18:46:27.575Z,26.70
2018-02-21T18:48:56.484Z,25.83
2018-02-21T18:51:24.596Z,25.13
2018-02-21T18:53:52.733Z,21.37
2018-02-21T18:56:20.863Z,22.80
2018-02-21T18:58:48.992Z,22.17
2018-02-21T19:01:17.219Z,23.40
2018-02-21T19:03:45.360Z,21.33
2018-02-21T19:06:13.481Z,21.27
2018-02-21T19:08:42.383Z,21.23
2018-02-21T19:11:10.956Z,21.30
2018-02-21T19:13:39.116Z,19.87
2018-02-21T19:16:07.228Z,20.47
2018-02-21T19:18:35.381Z,20.03
2018-02-21T19:21:04.264Z,19.87
2018-02-21T19:23:33.160Z,20.83
2018-02-21T19:26:02.045Z,21.10
2018-02-21T19:28:30.949Z,22.50
2018-02-21T19:30:59.077Z,21.63
2018-02-21T19:33:27.213Z,21.10
2018-02-21T19:35:55.337Z,19.47
2018-02-21T19:38:24.264Z,21.77
2018-02-21T19:40:52.401Z,18.80
2018-02-21T19:43:20.585Z,21.23
2018-02-21T19:45:48.696Z,20.97
2018-02-21T19:48:16.845Z,20.03
2018-02-21T19:50:45.740Z,21.63
2018-02-21T19:53:14.745Z,23.83
2018-02-21T19:55:42.900Z,25.33
2018-02-21T19:58:11.825Z,20.33
2018-02-21T20:00:39.968Z,19.53
2018-02-21T20:03:08.872Z,19.33
2018-02-21T20:05:37.767Z,19.33
2018-02-21T20:08:05.908Z,18.77
2018-02-21T20:10:34.029Z,19.30
2018-02-21T20:13:02.310Z,19.63
2018-02-21T20:15:30.446Z,17.43
2018-02-21T20:17:59.360Z,17.93
2018-02-21T20:20:27.483Z,18.93
2018-02-21T20:22:55.622Z,18.83
2018-02-21T20:25:23.741Z,19.57
2018-02-21T20:27:51.880Z,18.60
2018-02-21T20:30:20.420Z,21.00
2018-02-21T20:32:49.340Z,19.83
2018-02-21T20:35:17.506Z,17.83
2018-02-21T20:37:45.649Z,19.23
2018-02-21T20:40:13.993Z,19.63
2018-02-21T20:42:43.302Z,19.47
2018-02-21T20:45:17.144Z,20.30
2018-02-21T20:47:46.088Z,20.20
2018-02-21T20:50:14.200Z,18.33
2018-02-21T20:52:42.339Z,20.03
2018-02-21T20:55:10.468Z,19.67
2018-02-21T21:00:13.791Z,18.00
2018-02-21T21:02:41.900Z,20.47
2018-02-21T21:05:10.045Z,18.77
2018-02-21T21:07:38.201Z,17.57
2018-02-21T21:10:06.613Z,18.50
2018-02-21T21:12:35.788Z,18.07
2018-02-21T21:15:04.046Z,17.93
2018-02-21T21:17:33.087Z,17.20
2018-02-21T21:20:02.053Z,16.93
2018-02-21T21:22:30.180Z,16.80
2018-02-21T21:24:58.309Z,16.30
2018-02-21T21:27:26.437Z,17.10
2018-02-21T21:29:54.580Z,17.43
2018-02-21T21:32:22.854Z,16.20
2018-02-21T21:34:51.121Z,16.90
2018-02-21T21:37:19.344Z,15.67
2018-02-21T21:39:47.648Z,16.20
2018-02-21T21:42:16.617Z,16.17
2018-02-21T21:44:45.534Z,17.63
2018-02-21T21:47:13.656Z,16.90
2018-02-21T21:49:41.796Z,16.20
2018-02-21T21:52:09.924Z,18.37
2018-02-21T21:54:38.069Z,16.30
2018-02-21T21:57:06.192Z,16.50
2018-02-21T21:59:34.350Z,16.50
2018-02-21T22:02:03.241Z,16.13
2018-02-21T22:04:32.154Z,15.90
2018-02-21T22:07:00.269Z,16.20
2018-02-21T22:09:29.197Z,16.00
2018-02-21T22:11:58.092Z,16.87
2018-02-21T22:14:26.996Z,17.30
2018-02-21T22:16:55.121Z,17.20
2018-02-21T22:19:23.261Z,18.43
2018-02-21T22:21:51.400Z,17.20
2018-02-21T22:24:20.296Z,20.90
2018-02-21T22:26:49.182Z,16.50
2018-02-21T22:29:18.099Z,14.33
2018-02-21T22:31:46.212Z,15.37
2018-02-21T22:34:14.360Z,16.10
2018-02-21T22:36:42.480Z,15.30
2018-02-21T22:39:10.622Z,15.73
2018-02-21T22:41:38.732Z,16.17
2018-02-21T22:44:07.646Z,16.60
2018-02-21T22:46:36.462Z,15.67
2018-02-21T22:49:04.601Z,16.00
2018-02-21T22:51:33.526Z,15.83
2018-02-21T22:54:01.673Z,15.63
2018-02-21T22:56:29.798Z,15.70
2018-02-21T22:58:57.937Z,14.00
2018-02-21T23:01:26.057Z,16.20
2018-02-21T23:03:54.200Z,15.93
2018-02-21T23:06:22.319Z,14.90
2018-02-21T23:08:51.236Z,14.57
2018-02-21T23:11:19.352Z,15.80
2018-02-21T23:13:47.492Z,14.93
2018-02-21T23:16:15.604Z,15.37
2018-02-21T23:18:43.749Z,15.70
2018-02-21T23:21:11.865Z,14.50
2018-02-21T23:23:40.010Z,16.07
2018-02-21T23:26:08.125Z,15.33
2018-02-21T23:28:37.631Z,15.47
2018-02-21T23:31:06.509Z,14.40
2018-02-21T23:33:34.650Z,14.87
2018-02-21T23:36:02.765Z,14.73
2018-02-21T23:38:31.694Z,14.80
2018-02-21T23:40:59.820Z,15.77
2018-02-21T23:43:27.936Z,15.10
2018-02-21T23:45:56.084Z,13.97
2018-02-21T23:48:24.979Z,14.97
2018-02-21T23:50:54.174Z,13.70
2018-02-21T23:53:23.048Z,15.93
2018-02-21T23:55:51.196Z,14.83
2018-02-21T23:58:19.320Z,15.13
